METAR Data
IDs: Format: Raw Decoded Include TAF

Data at: 2027 UTC 14 Dec 2018

KDHT 141953Z AUTO 35006KT 10SM CLR 12/M14 A3029 RMK AO2 SLP258 T01171144
KDHT 141853Z AUTO 05005KT 10SM CLR 11/M14 A3031 RMK AO2 SLP267 T01061144
KDHT 141753Z AUTO VRB03KT 10SM CLR 09/M14 A3034 RMK AO2 SLP281 T00891144 10089 21089 50007
KDHT 141653Z AUTO 02010KT 10SM CLR 07/M14 A3035 RMK AO2 SLP285 T00721139
KDHT 141553Z AUTO 34008KT 10SM CLR 03/M13 A3033 RMK AO2 SLP287 T00281128
KDHT 141453Z AUTO 35007KT 10SM CLR M03/M14 A3032 RMK AO2 SLP285 T10281139 53011
KDHT 141353Z AUTO 33008KT 10SM CLR M06/M15 A3030 RMK AO2 SLP284 T10611150
KDHT 141253Z AUTO 31008KT 10SM CLR M06/M15 A3029 RMK AO2 SLP277 T10611150
KDHT 141153Z AUTO 29007KT 10SM CLR M08/M16 A3028 RMK AO2 SLP274 T10831156 11039 21083 56001
KDHT 141053Z AUTO 32008KT 10SM CLR M06/M16 A3028 RMK AO2 SLP266 T10611156
KDHT 140953Z AUTO 31009KT 10SM CLR M07/M16 A3028 RMK AO2 SLP265 T10671156
KDHT 140853Z AUTO 30010KT 10SM CLR M07/M15 A3028 RMK AO2 SLP267 T10671150 51005
KDHT 140753Z AUTO 32008KT 10SM CLR M06/M15 A3028 RMK AO2 SLP264 T10561150
KDHT 140653Z AUTO 36008KT 10SM CLR M04/M14 A3027 RMK AO2 SLP260 T10441144
KDHT 140553Z AUTO 01012KT 10SM CLR M04/M14 A3027 RMK AO2 SLP260 T10441144 10039 21044 400721044 51013
KDHT 140453Z AUTO 36011KT 10SM CLR M04/M14 A3025 RMK AO2 SLP254 T10391144
KDHT 140353Z AUTO 34009KT 10SM CLR M04/M14 A3024 RMK AO2 SLP255 T10391144
KDHT 140253Z AUTO 36009KT 10SM CLR M01/M14 A3022 RMK AO2 SLP244 T10111144 53015
KDHT 140153Z AUTO 36012KT 10SM CLR 00/M14 A3020 RMK AO2 SLP235 T00001144
KDHT 140053Z AUTO 36013KT 10SM CLR 02/M14 A3018 RMK AO2 SLP225 T00171144
KDHT 132353Z AUTO 36019G27KT 10SM CLR 04/M15 A3017 RMK AO2 PK WND 36038/2257 SLP218 T00391150 10072 20039 53015
KDHT 132253Z AUTO 36029G38KT 10SM CLR 06/M15 A3015 RMK AO2 PK WND 36044/2154 SLP206 T00561150
KDHT 132153Z AUTO 36034G43KT 10SM CLR 07/M14 A3014 RMK AO2 PK WND 01045/2142 SLP203 T00671144
KDHT 132053Z AUTO 36032G48KT 10SM CLR 07/M14 A3012 RMK AO2 PK WND 01048/2046 SLP195 T00671139 53005
KDHT 131953Z AUTO 01037G46KT 10SM CLR 07/M13 A3011 RMK AO2 PK WND 01053/1940 SLP192 T00671133
KDHT 131853Z AUTO 01040G54KT 8SM FEW027 07/M13 A3011 RMK AO2 PK WND 01056/1755 SLP187 T00671133
KDHT 131753Z AUTO 01035G49KT 9SM CLR 06/M13 A3011 RMK AO2 PK WND 36050/1725 SLP190 T00561128 10056 20022 50018
KDHT 131653Z AUTO 01035G46KT 10SM CLR 04/M09 A3012 RMK AO2 PK WND 01048/1634 SLP193 T00441089
KDHT 131553Z AUTO 36034G49KT 10SM CLR 02/M10 A3010 RMK AO2 PK WND 36049/1549 SLP189 T00221100
KDHT 131453Z AUTO 35032G42KT 10SM CLR 02/M11 A3005 RMK AO2 PK WND 36043/1408 SLP172 T00221106 51037
KDHT 131353Z AUTO 36032G42KT 10SM CLR 02/M10 A3002 RMK AO2 PK WND 36044/1333 SLP163 T00221100
KDHT 131253Z AUTO 36029G39KT 10SM BKN120 03/M08 A2998 RMK AO2 PK WND 36043/1229 SLP152 T00281083
KDHT 131153Z AUTO 36029G42KT 10SM BKN090 02/M06 A2993 RMK AO2 PK WND 36046/1108 SLP126 T00221056 10061 20022 51029
KDHT 131053Z AUTO 01033G46KT 10SM SCT080 03/M03 A2990 RMK AO2 PK WND 36050/1005 SLP103 T00281033
KDHT 130953Z AUTO 36034G44KT 10SM CLR 03/M03 A2987 RMK AO2 PK WND 36047/0921 SLP091 T00281033
KDHT 130853Z AUTO 36035G47KT 10SM FEW120 04/M04 A2983 RMK AO2 PK WND 01050/0810 SLP079 T00391039 53063